createdAt,value
2022-09-14T00:00:30.846Z,100335.19
2022-09-14T00:03:00.433Z,100335.06
2022-09-14T00:05:29.938Z,100332.94
2022-09-14T00:08:01.911Z,100333.59
2022-09-14T00:10:31.319Z,100329.97
2022-09-14T00:13:00.791Z,100329.06
2022-09-14T00:15:30.178Z,100324.63
2022-09-14T00:17:59.557Z,100315.97
2022-09-14T00:20:29.048Z,100303.78
2022-09-14T00:22:58.445Z,100300.47
2022-09-14T00:25:30.486Z,100303.72
2022-09-14T00:28:00.771Z,100303.69
2022-09-14T00:30:30.486Z,100299.31
2022-09-14T00:32:59.849Z,100281.06
2022-09-14T00:35:29.232Z,100279.50
2022-09-14T00:37:58.586Z,100279.41
2022-09-14T00:40:30.626Z,100275.88
2022-09-14T00:43:00.029Z,100280.09
2022-09-14T00:45:30.623Z,100270.66
2022-09-14T00:48:00.103Z,100279.09
2022-09-14T00:50:29.494Z,100272.22
2022-09-14T00:52:59.532Z,100272.22
2022-09-14T00:55:31.536Z,100266.84
2022-09-14T00:58:00.945Z,100267.50
2022-09-14T01:00:32.489Z,100265.03
2022-09-14T01:03:02.398Z,100266.47
2022-09-14T01:05:40.294Z,100264.53
2022-09-14T01:08:25.169Z,100272.00
2022-09-14T01:11:08.794Z,100278.06
2022-09-14T01:13:43.903Z,100273.81
2022-09-14T01:16:19.919Z,100278.84
2022-09-14T01:18:51.182Z,100274.50
2022-09-14T01:21:23.398Z,100281.16
2022-09-14T01:23:59.494Z,100284.56
2022-09-14T01:26:44.538Z,100282.03
2022-09-14T01:29:19.680Z,100282.91
2022-09-14T01:31:53.077Z,100285.69
2022-09-14T01:34:28.932Z,100294.19
2022-09-14T01:37:02.025Z,100295.72
2022-09-14T01:39:33.028Z,100298.19
2022-09-14T01:42:02.681Z,100297.97
2022-09-14T01:44:37.733Z,100300.41
2022-09-14T01:47:13.571Z,100295.47
2022-09-14T01:49:47.397Z,100296.34
2022-09-14T01:52:20.758Z,100292.94
2022-09-14T01:54:52.842Z,100293.72
2022-09-14T01:57:26.580Z,100294.69
2022-09-14T02:00:02.270Z,100287.78
2022-09-14T02:02:33.825Z,100294.69
2022-09-14T02:05:06.863Z,100300.00
2022-09-14T02:07:36.906Z,100299.84
2022-09-14T02:10:09.206Z,100299.66
2022-09-14T02:12:39.056Z,100295.19
2022-09-14T02:15:13.267Z,100299.56
2022-09-14T02:17:43.006Z,100301.19
2022-09-14T02:20:17.448Z,100301.09
2022-09-14T02:22:47.274Z,100306.13
2022-09-14T02:25:16.817Z,100300.97
2022-09-14T02:27:47.471Z,100302.75
2022-09-14T02:30:20.777Z,100300.94
2022-09-14T02:32:58.504Z,100303.41
2022-09-14T02:35:32.077Z,100300.81
2022-09-14T02:38:04.998Z,100304.16
2022-09-14T02:40:37.454Z,100296.59
2022-09-14T02:43:15.383Z,100300.13
2022-09-14T02:45:54.845Z,100300.97
2022-09-14T02:48:30.886Z,100296.72
2022-09-14T02:51:04.022Z,100295.72
2022-09-14T02:53:37.272Z,100301.72
2022-09-14T02:56:09.535Z,100297.31
2022-09-14T02:58:40.143Z,100296.56
2022-09-14T03:01:14.405Z,100294.81
2022-09-14T03:03:44.050Z,100295.59
2022-09-14T03:06:13.641Z,100302.41
2022-09-14T03:08:44.454Z,100294.69
2022-09-14T03:11:13.916Z,100303.19
2022-09-14T03:13:44.509Z,100306.59
2022-09-14T03:16:19.193Z,100303.09
2022-09-14T03:18:48.841Z,100306.47
2022-09-14T03:21:20.135Z,100300.53
2022-09-14T03:23:51.244Z,100302.22
2022-09-14T03:26:22.069Z,100297.88
2022-09-14T03:28:53.659Z,100292.66
2022-09-14T03:31:26.360Z,100297.81
2022-09-14T03:33:56.881Z,100290.91
2022-09-14T03:36:27.450Z,100296.72
2022-09-14T03:38:59.921Z,100278.59
2022-09-14T03:41:29.547Z,100277.47
2022-09-14T03:43:59.022Z,100272.91
2022-09-14T03:46:31.048Z,100263.38
2022-09-14T03:49:00.442Z,100263.19
2022-09-14T03:51:29.921Z,100265.75
2022-09-14T03:53:59.287Z,100256.22
2022-09-14T03:56:28.666Z,100256.25
2022-09-14T03:58:58.041Z,100258.59
2022-09-14T04:01:27.487Z,100262.78
2022-09-14T04:03:59.512Z,100263.69
2022-09-14T04:06:28.918Z,100254.19
2022-09-14T04:09:00.038Z,100255.94
2022-09-14T04:11:31.494Z,100262.16
2022-09-14T04:14:03.886Z,100256.16
2022-09-14T04:16:34.068Z,100251.16
2022-09-14T04:19:06.189Z,100252.97
2022-09-14T04:21:36.069Z,100255.53
2022-09-14T04:24:21.752Z,100252.91
2022-09-14T04:26:52.545Z,100257.31
2022-09-14T04:29:21.978Z,100250.63
2022-09-14T04:31:51.373Z,100252.38
2022-09-14T04:34:23.346Z,100252.69
2022-09-14T04:36:52.935Z,100259.50
2022-09-14T04:39:22.423Z,100271.59
2022-09-14T04:41:51.890Z,100272.44
2022-09-14T04:44:21.395Z,100280.34
2022-09-14T04:46:50.833Z,100278.78
2022-09-14T04:49:23.174Z,100286.59
2022-09-14T04:51:53.285Z,100281.53
2022-09-14T04:54:22.653Z,100282.47
2022-09-14T04:56:52.053Z,100286.84
2022-09-14T04:59:21.422Z,100290.31
2022-09-14T05:01:51.181Z,100295.53
2022-09-14T05:04:23.186Z,100300.78
2022-09-14T05:06:52.868Z,100300.94
2022-09-14T05:09:22.329Z,100291.47
2022-09-14T05:11:52.930Z,100290.72
2022-09-14T05:14:22.358Z,100298.59
2022-09-14T05:16:51.894Z,100304.72
2022-09-14T05:19:23.856Z,100297.03
2022-09-14T05:21:53.243Z,100299.69
2022-09-14T05:24:22.621Z,100300.78
2022-09-14T05:26:59.468Z,100304.34
2022-09-14T05:29:30.113Z,100303.63
2022-09-14T05:31:59.493Z,100300.41
2022-09-14T05:34:31.475Z,100303.06
2022-09-14T05:37:00.849Z,100306.63
2022-09-14T05:39:30.222Z,100309.19
2022-09-14T05:41:59.673Z,100314.34
2022-09-14T05:44:29.061Z,100318.69
2022-09-14T05:46:58.430Z,100323.84
2022-09-14T05:49:27.821Z,100323.22
2022-09-14T05:51:59.807Z,100326.75
2022-09-14T05:54:29.217Z,100320.03
2022-09-14T05:56:58.640Z,100323.56
2022-09-14T05:59:31.600Z,100329.72
2022-09-14T06:02:01.452Z,100324.63
2022-09-14T06:04:31.185Z,100327.34
2022-09-14T06:07:17.995Z,100340.44
2022-09-14T06:09:48.306Z,100333.66
2022-09-14T06:12:17.901Z,100322.72
2022-09-14T06:14:47.254Z,100328.88
2022-09-14T06:17:16.658Z,100332.59
2022-09-14T06:19:46.023Z,100338.00
2022-09-14T06:22:18.007Z,100339.09
2022-09-14T06:24:47.381Z,100338.50
2022-09-14T06:27:16.804Z,100330.81
2022-09-14T06:29:51.914Z,100346.44
2022-09-14T06:32:23.220Z,100345.84
2022-09-14T06:34:52.644Z,100352.75
2022-09-14T06:37:24.605Z,100361.47
2022-09-14T06:39:54.032Z,100361.53
2022-09-14T06:42:23.406Z,100366.88
2022-09-14T06:44:53.281Z,100352.28
2022-09-14T06:47:23.877Z,100364.38
2022-09-14T06:49:53.268Z,100352.47
2022-09-14T06:52:25.239Z,100354.41
2022-09-14T06:54:54.631Z,100362.13
2022-09-14T06:57:23.994Z,100357.13
2022-09-14T06:59:53.380Z,100365.88
2022-09-14T07:02:23.046Z,100360.94
2022-09-14T07:04:52.577Z,100363.66
2022-09-14T07:07:22.178Z,100363.75
2022-09-14T07:09:54.159Z,100363.81
2022-09-14T07:12:23.526Z,100361.50
2022-09-14T07:14:52.883Z,100369.63
2022-09-14T07:17:22.297Z,100374.16
2022-09-14T07:19:51.661Z,100375.19
2022-09-14T07:22:21.032Z,100387.03
2022-09-14T07:24:50.482Z,100386.28
2022-09-14T07:27:22.469Z,100370.06
2022-09-14T07:29:51.830Z,100374.25
2022-09-14T07:32:21.204Z,100374.47
2022-09-14T07:34:50.585Z,100366.94
2022-09-14T07:37:19.961Z,100365.44
2022-09-14T07:39:49.434Z,100371.69
2022-09-14T07:42:18.884Z,100370.16
2022-09-14T07:44:50.846Z,100383.34
2022-09-14T07:47:20.233Z,100386.09
2022-09-14T07:49:49.613Z,100385.47
2022-09-14T07:52:19.038Z,100384.66
2022-09-14T07:54:48.405Z,100396.91
2022-09-14T07:57:17.902Z,100386.78
2022-09-14T07:59:49.858Z,100383.72
2022-09-14T08:02:19.374Z,100380.47
2022-09-14T08:04:48.770Z,100384.53
2022-09-14T08:07:18.123Z,100381.25
2022-09-14T08:09:48.528Z,100372.78
2022-09-14T08:12:18.396Z,100377.94
2022-09-14T08:14:51.244Z,100384.22
2022-09-14T08:17:22.082Z,100378.38
2022-09-14T08:19:51.581Z,100390.53
2022-09-14T08:22:21.003Z,100394.84
2022-09-14T08:24:50.414Z,100394.00
2022-09-14T08:27:19.789Z,100395.72
2022-09-14T08:29:51.751Z,100395.84
2022-09-14T08:32:21.130Z,100410.56
2022-09-14T08:34:52.622Z,100412.41
2022-09-14T08:37:22.017Z,100420.22
2022-09-14T08:39:51.830Z,100422.78
2022-09-14T08:42:25.054Z,100407.50
2022-09-14T08:45:00.463Z,100412.06
2022-09-14T08:47:32.316Z,100411.28
2022-09-14T08:50:06.102Z,100419.25
2022-09-14T08:52:37.369Z,100427.84
2022-09-14T08:55:20.338Z,100429.41
2022-09-14T08:57:51.858Z,100423.31
2022-09-14T09:00:25.353Z,100420.56
2022-09-14T09:03:20.560Z,100422.31
2022-09-14T09:05:54.859Z,100412.28
2022-09-14T09:08:30.149Z,100398.75
2022-09-14T09:11:02.044Z,100425.59
2022-09-14T09:13:34.395Z,100440.13
2022-09-14T09:16:09.369Z,100428.38
2022-09-14T09:18:42.337Z,100425.75
2022-09-14T09:21:16.545Z,100430.78
2022-09-14T09:23:46.446Z,100437.72
2022-09-14T09:26:20.012Z,100441.25
2022-09-14T09:28:51.494Z,100435.25
2022-09-14T09:31:33.904Z,100425.69
2022-09-14T09:34:04.098Z,100416.03
2022-09-14T09:36:37.298Z,100405.59
2022-09-14T09:39:07.369Z,100414.03
2022-09-14T09:41:46.713Z,100406.41
2022-09-14T09:44:16.157Z,100419.41
2022-09-14T09:46:53.038Z,100425.44
2022-09-14T09:49:24.597Z,100415.94
2022-09-14T09:51:54.388Z,100407.41
2022-09-14T09:54:30.655Z,100404.94
2022-09-14T09:57:01.229Z,100392.88
2022-09-14T09:59:35.361Z,100399.03
2022-09-14T10:02:26.738Z,100390.47
2022-09-14T10:05:01.548Z,100399.19
2022-09-14T10:07:32.113Z,100397.25
2022-09-14T10:10:03.607Z,100398.66
2022-09-14T10:12:33.593Z,100391.66
2022-09-14T10:15:17.934Z,100381.28
2022-09-14T10:18:07.582Z,100377.84
2022-09-14T10:20:37.454Z,100386.47
2022-09-14T10:23:25.751Z,100379.50
2022-09-14T10:25:56.290Z,100392.34
2022-09-14T10:28:28.510Z,100375.94
2022-09-14T10:31:02.115Z,100374.28
2022-09-14T10:33:34.166Z,100378.25
2022-09-14T10:36:11.379Z,100371.94
2022-09-14T10:38:42.874Z,100363.34
2022-09-14T10:41:26.291Z,100368.50
2022-09-14T10:44:25.951Z,100354.63
2022-09-14T10:47:10.131Z,100359.88
2022-09-14T10:49:52.716Z,100365.16
2022-09-14T10:52:26.985Z,100356.75
2022-09-14T10:55:32.186Z,100357.72
2022-09-14T10:58:11.755Z,100344.97
2022-09-14T11:00:54.213Z,100353.97
2022-09-14T11:03:33.871Z,100355.84
2022-09-14T11:06:13.323Z,100361.38
2022-09-14T11:08:47.494Z,100384.09
2022-09-14T11:11:29.245Z,100394.88
2022-09-14T11:14:08.666Z,100402.81
2022-09-14T11:16:55.834Z,100418.41
2022-09-14T11:19:36.445Z,100434.91
2022-09-14T11:22:13.300Z,100464.47
2022-09-14T11:24:45.706Z,100468.75
2022-09-14T11:27:19.257Z,100478.44
2022-09-14T11:29:51.453Z,100495.78
2022-09-14T11:32:24.934Z,100495.84
2022-09-14T11:34:58.166Z,100501.19
2022-09-14T11:37:37.082Z,100520.41
2022-09-14T11:40:11.418Z,100516.81
2022-09-14T11:42:46.619Z,100516.84
2022-09-14T11:45:23.869Z,100543.84
2022-09-14T11:48:00.341Z,100566.50
2022-09-14T11:50:31.814Z,100579.16
2022-09-14T11:53:12.652Z,100559.00
2022-09-14T11:55:46.894Z,100558.03
2022-09-14T11:58:21.793Z,100546.56
2022-09-14T12:01:23.744Z,100540.34
2022-09-14T12:04:07.822Z,100536.56
2022-09-14T12:06:56.891Z,100530.44
2022-09-14T12:10:03.682Z,100530.41
2022-09-14T12:12:43.555Z,100524.22
2022-09-14T12:15:36.288Z,100509.53
2022-09-14T12:18:27.150Z,100507.00
2022-09-14T12:21:04.753Z,100527.84
2022-09-14T12:23:51.811Z,100545.94
2022-09-14T12:26:41.798Z,100539.72
2022-09-14T12:29:30.427Z,100524.69
2022-09-14T12:32:06.005Z,100514.16
2022-09-14T12:34:35.912Z,100488.03
2022-09-14T12:37:30.619Z,100488.03
2022-09-14T12:40:36.572Z,100487.13
2022-09-14T12:43:36.108Z,100474.97
2022-09-14T12:46:10.822Z,100465.53
2022-09-14T12:49:17.391Z,100476.91
2022-09-14T12:51:51.318Z,100480.31
2022-09-14T12:54:27.159Z,100473.38
2022-09-14T12:57:12.057Z,100480.41
2022-09-14T12:59:47.272Z,100484.13
2022-09-14T13:02:43.683Z,100458.63
2022-09-14T13:05:16.274Z,100526.84
2022-09-14T13:07:47.097Z,100552.97
2022-09-14T13:10:22.413Z,100568.50
2022-09-14T13:12:52.014Z,100566.78
2022-09-14T13:15:24.813Z,100581.53
2022-09-14T13:18:05.375Z,100579.81
2022-09-14T13:20:36.729Z,100588.28
2022-09-14T13:23:06.490Z,100600.25
2022-09-14T13:25:37.582Z,100602.22
2022-09-14T13:28:08.845Z,100574.44
2022-09-14T13:30:38.672Z,100570.25
2022-09-14T13:33:18.673Z,100559.91
2022-09-14T13:35:50.647Z,100609.34
2022-09-14T13:38:21.789Z,100603.09
2022-09-14T13:40:52.278Z,100596.00
2022-09-14T13:43:23.070Z,100539.38
2022-09-14T13:45:53.673Z,100538.44
2022-09-14T13:48:25.979Z,100532.53
2022-09-14T13:50:57.530Z,100510.78
2022-09-14T13:53:40.880Z,100558.50
2022-09-14T13:56:26.556Z,100571.44
2022-09-14T13:59:21.524Z,100629.88
2022-09-14T14:01:57.381Z,100673.09
2022-09-14T14:04:36.386Z,100719.06
2022-09-14T14:07:08.662Z,100699.16
2022-09-14T14:09:44.243Z,100714.81
2022-09-14T14:12:15.254Z,100751.03
2022-09-14T14:14:44.678Z,100764.75
2022-09-14T14:17:26.108Z,100772.72
2022-09-14T14:19:59.944Z,100780.66
2022-09-14T14:22:31.418Z,100775.59
2022-09-14T14:25:16.518Z,100808.88
2022-09-14T14:27:47.133Z,100807.28
2022-09-14T14:30:18.293Z,100812.53
2022-09-14T14:32:52.302Z,100817.63
2022-09-14T14:35:27.382Z,100816.06
2022-09-14T14:37:57.370Z,100804.03
2022-09-14T14:40:28.251Z,100774.59
2022-09-14T14:42:58.149Z,100696.28
2022-09-14T14:45:35.387Z,100626.75
2022-09-14T14:48:05.918Z,100520.41
2022-09-14T14:50:37.935Z,100401.31
2022-09-14T14:53:08.256Z,100328.22
2022-09-14T14:55:40.976Z,100264.69
2022-09-14T14:58:11.372Z,100199.44
2022-09-14T15:00:41.198Z,100175.88
2022-09-14T15:03:10.954Z,100195.84
2022-09-14T15:05:46.302Z,100198.47
2022-09-14T15:08:17.375Z,100196.75
2022-09-14T15:10:46.889Z,100201.91
2022-09-14T15:13:16.573Z,100218.41
2022-09-14T15:15:46.180Z,100263.63
2022-09-14T15:18:15.568Z,100224.47
2022-09-14T15:20:47.533Z,100233.03
2022-09-14T15:23:17.258Z,100250.44
2022-09-14T15:25:46.681Z,100245.19
2022-09-14T15:28:16.190Z,100271.25
2022-09-14T15:30:45.785Z,100321.44
2022-09-14T15:33:15.202Z,100370.06
2022-09-14T15:35:47.196Z,100437.91
2022-09-14T15:38:16.551Z,100410.84
2022-09-14T15:40:45.901Z,100450.91
2022-09-14T15:43:15.270Z,100516.28
2022-09-14T15:45:45.013Z,100450.94
2022-09-14T15:48:16.185Z,100472.44
2022-09-14T15:50:50.512Z,100462.06
2022-09-14T15:53:20.126Z,100408.22
2022-09-14T15:55:49.786Z,100476.19
2022-09-14T15:58:19.219Z,100411.63
2022-09-14T16:00:48.641Z,100452.47
2022-09-14T16:03:18.219Z,100437.66
2022-09-14T16:05:50.183Z,100448.00
2022-09-14T16:08:20.768Z,100434.06
2022-09-14T16:10:50.161Z,100437.41
2022-09-14T16:13:19.565Z,100447.75
2022-09-14T16:15:48.937Z,100484.31
2022-09-14T16:18:18.306Z,100507.78
2022-09-14T16:20:50.273Z,100543.28
2022-09-14T16:23:19.667Z,100550.22
2022-09-14T16:25:50.000Z,100566.31
2022-09-14T16:28:19.377Z,100624.59
2022-09-14T16:30:48.786Z,100649.63
2022-09-14T16:33:19.312Z,100697.13
2022-09-14T16:35:51.272Z,100789.81
2022-09-14T16:38:20.683Z,100867.09
2022-09-14T16:40:50.106Z,100932.13
2022-09-14T16:43:19.518Z,100953.00
2022-09-14T16:45:48.938Z,100968.34
2022-09-14T16:48:18.377Z,101001.97
2022-09-14T16:50:47.746Z,101005.53
2022-09-14T16:53:19.717Z,100988.66
2022-09-14T16:55:49.230Z,100962.50
2022-09-14T16:58:18.621Z,100955.53
2022-09-14T17:00:48.174Z,100941.44
2022-09-14T17:03:17.581Z,100917.88
2022-09-14T17:05:46.946Z,100889.03
2022-09-14T17:08:18.929Z,100831.78
2022-09-14T17:10:49.573Z,100793.38
2022-09-14T17:13:18.969Z,100740.41
2022-09-14T17:15:48.318Z,100715.13
2022-09-14T17:18:17.713Z,100724.66
2022-09-14T17:20:55.450Z,100724.53
2022-09-14T17:23:27.585Z,100716.50
2022-09-14T17:25:57.644Z,100707.81
2022-09-14T17:28:29.702Z,100707.00
2022-09-14T17:31:00.625Z,100713.06
2022-09-14T17:33:30.661Z,100706.81
2022-09-14T17:36:01.126Z,100708.53
2022-09-14T17:38:40.017Z,100709.38
2022-09-14T17:41:10.970Z,100697.09
2022-09-14T17:43:41.283Z,100696.00
2022-09-14T17:46:14.779Z,100679.44
2022-09-14T17:48:45.036Z,100669.84
2022-09-14T17:51:18.125Z,100669.88
2022-09-14T17:53:56.695Z,100664.63
2022-09-14T17:56:27.569Z,100671.47
2022-09-14T17:59:05.062Z,100669.66
2022-09-14T18:01:35.217Z,100658.25
2022-09-14T18:04:06.646Z,100646.91
2022-09-14T18:06:38.475Z,100639.91
2022-09-14T18:09:13.310Z,100639.91
2022-09-14T18:11:43.002Z,100636.34
2022-09-14T18:14:13.257Z,100621.59
2022-09-14T18:16:43.504Z,100626.84
2022-09-14T18:19:13.271Z,100637.22
2022-09-14T18:21:42.787Z,100629.38
2022-09-14T18:24:15.658Z,100610.97
2022-09-14T18:26:46.376Z,100607.50
2022-09-14T18:29:17.709Z,100598.84
2022-09-14T18:31:47.240Z,100599.69
2022-09-14T18:34:16.776Z,100594.53
2022-09-14T18:36:46.174Z,100591.94
2022-09-14T18:39:18.387Z,100581.53
2022-09-14T18:41:48.089Z,100573.75
2022-09-14T18:44:17.487Z,100577.25
2022-09-14T18:46:47.189Z,100582.25
2022-09-14T18:49:16.650Z,100582.09
2022-09-14T18:51:46.247Z,100568.13
2022-09-14T18:54:18.414Z,100567.97
2022-09-14T18:56:48.087Z,100557.50
2022-09-14T18:59:18.130Z,100536.69
2022-09-14T19:01:47.530Z,100539.28
2022-09-14T19:04:17.392Z,100523.59
2022-09-14T19:06:46.793Z,100517.56
2022-09-14T19:09:18.766Z,100509.81
2022-09-14T19:11:48.205Z,100490.56
2022-09-14T19:14:20.539Z,100452.31
2022-09-14T19:16:50.392Z,100449.63
2022-09-14T19:19:19.847Z,100420.25
2022-09-14T19:21:49.224Z,100406.38
2022-09-14T19:24:21.468Z,100386.22
2022-09-14T19:26:52.805Z,100369.69
2022-09-14T19:29:24.489Z,100350.47
2022-09-14T19:31:55.108Z,100341.75
2022-09-14T19:34:26.602Z,100321.59
2022-09-14T19:36:56.425Z,100309.19
2022-09-14T19:39:28.814Z,100284.97
2022-09-14T19:41:58.329Z,100278.06
2022-09-14T19:44:27.762Z,100265.00
2022-09-14T19:46:57.161Z,100250.97
2022-09-14T19:49:28.114Z,100242.06
2022-09-14T19:51:57.531Z,100224.66
2022-09-14T19:54:29.581Z,100220.25
2022-09-14T19:56:59.023Z,100200.22
2022-09-14T19:59:28.712Z,100193.16
2022-09-14T20:01:58.233Z,100176.66
2022-09-14T20:04:27.687Z,100164.53
2022-09-14T20:06:57.586Z,100157.56
2022-09-14T20:09:29.622Z,100149.63
2022-09-14T20:11:59.009Z,100141.72
2022-09-14T20:14:29.024Z,100139.06
2022-09-14T20:17:00.943Z,100137.31
2022-09-14T20:19:32.583Z,100132.13
2022-09-14T20:22:02.002Z,100128.56
2022-09-14T20:24:35.810Z,100126.81
2022-09-14T20:27:05.281Z,100122.53
2022-09-14T20:29:35.834Z,100125.91
2022-09-14T20:32:06.475Z,100118.09
2022-09-14T20:34:36.666Z,100120.50
2022-09-14T20:37:06.096Z,100113.38
2022-09-14T20:39:38.418Z,100105.50
2022-09-14T20:42:08.438Z,100100.28
2022-09-14T20:44:37.821Z,100092.34
2022-09-14T20:47:07.361Z,100077.56
2022-09-14T20:49:36.739Z,100085.22
2022-09-14T20:52:06.574Z,100075.66
2022-09-14T20:54:38.554Z,100067.81
2022-09-14T20:57:07.905Z,100065.22
2022-09-14T20:59:37.490Z,100063.44
2022-09-14T21:02:06.963Z,100049.47
2022-09-14T21:04:37.290Z,100047.66
2022-09-14T21:07:06.710Z,100043.34
2022-09-14T21:09:39.187Z,100030.25
2022-09-14T21:12:11.702Z,100030.22
2022-09-14T21:14:41.130Z,100022.59
2022-09-14T21:17:10.530Z,100006.16
2022-09-14T21:19:40.578Z,100003.59
2022-09-14T21:22:09.988Z,99985.34
2022-09-14T21:24:41.966Z,99989.66
2022-09-14T21:27:11.336Z,99985.34
2022-09-14T21:29:40.692Z,99988.03
2022-09-14T21:32:10.073Z,99975.91
2022-09-14T21:34:39.443Z,99978.44
2022-09-14T21:37:09.002Z,99966.50
2022-09-14T21:39:38.471Z,99966.50
2022-09-14T21:42:10.622Z,99978.53
2022-09-14T21:44:40.445Z,99963.94
2022-09-14T21:47:09.832Z,99963.09
2022-09-14T21:49:39.271Z,99959.66
2022-09-14T21:52:08.636Z,99965.63
2022-09-14T21:54:38.024Z,99962.94
2022-09-14T21:57:10.116Z,99965.47
2022-09-14T21:59:40.290Z,99963.84
2022-09-14T22:02:09.726Z,99975.00
2022-09-14T22:04:39.168Z,99975.91
2022-09-14T22:07:08.528Z,99969.84
2022-09-14T22:09:37.956Z,99974.94
2022-09-14T22:12:10.796Z,99968.09
2022-09-14T22:14:40.222Z,99972.38
2022-09-14T22:17:09.601Z,99969.78
2022-09-14T22:19:40.054Z,99978.38
2022-09-14T22:22:09.420Z,99974.84
2022-09-14T22:24:39.370Z,99980.81
2022-09-14T22:27:12.814Z,99977.41
2022-09-14T22:29:43.794Z,99978.28
2022-09-14T22:32:14.505Z,99973.16
2022-09-14T22:34:49.331Z,99971.47
2022-09-14T22:37:19.195Z,99974.00
2022-09-14T22:39:48.848Z,99974.06
2022-09-14T22:42:21.424Z,99978.44
2022-09-14T22:44:50.809Z,99976.06
2022-09-14T22:47:20.171Z,99985.44
2022-09-14T22:49:49.991Z,99974.22
2022-09-14T22:52:19.390Z,99977.69
2022-09-14T22:54:48.780Z,99972.94
2022-09-14T22:57:22.489Z,99966.06
2022-09-14T22:59:51.895Z,99971.25
2022-09-14T23:02:21.318Z,99972.19
2022-09-14T23:04:51.396Z,99969.66
2022-09-14T23:07:20.777Z,99965.50
2022-09-14T23:09:50.189Z,99971.63
2022-09-14T23:12:22.181Z,99982.91
2022-09-14T23:14:51.532Z,99979.81
2022-09-14T23:17:22.397Z,99982.44
2022-09-14T23:19:52.036Z,99973.97
2022-09-14T23:22:21.964Z,99979.31
2022-09-14T23:24:51.362Z,99981.13
2022-09-14T23:27:23.321Z,99988.13
2022-09-14T23:29:52.730Z,99986.50
2022-09-14T23:32:22.538Z,99995.22
2022-09-14T23:34:51.922Z,99986.66
2022-09-14T23:37:24.138Z,99997.09
2022-09-14T23:39:53.528Z,99995.53
2022-09-14T23:42:25.544Z,99998.16
2022-09-14T23:44:54.929Z,100004.22
2022-09-14T23:47:24.310Z,99996.47
2022-09-14T23:49:53.714Z,100000.78
2022-09-14T23:52:23.152Z,100002.69
2022-09-14T23:54:52.529Z,100008.69
2022-09-14T23:57:21.929Z,100011.34
2022-09-14T23:59:53.905Z,100009.56
